sensor_id;sensor_type;location;lat;lon;timestamp;P1;durP1;ratioP1;P2;durP2;ratioP2
29120;SDS011;16191;49.548;8.658;2023-04-03T00:00:59;8.45;;;2.08;;
29120;SDS011;16191;49.548;8.658;2023-04-03T00:03:26;6.18;;;2.50;;
29120;SDS011;16191;49.548;8.658;2023-04-03T00:05:53;5.25;;;2.20;;
29120;SDS011;16191;49.548;8.658;2023-04-03T00:08:21;4.72;;;2.03;;
29120;SDS011;16191;49.548;8.658;2023-04-03T00:10:47;5.30;;;2.17;;
29120;SDS011;16191;49.548;8.658;2023-04-03T00:13:14;4.35;;;2.30;;
29120;SDS011;16191;49.548;8.658;2023-04-03T00:15:42;5.97;;;2.30;;
29120;SDS011;16191;49.548;8.658;2023-04-03T00:18:09;7.70;;;2.35;;
29120;SDS011;16191;49.548;8.658;2023-04-03T00:20:36;4.60;;;2.22;;
29120;SDS011;16191;49.548;8.658;2023-04-03T00:23:03;8.95;;;1.98;;
29120;SDS011;16191;49.548;8.658;2023-04-03T00:25:30;7.60;;;2.28;;
29120;SDS011;16191;49.548;8.658;2023-04-03T00:27:56;6.00;;;1.80;;
29120;SDS011;16191;49.548;8.658;2023-04-03T00:30:23;5.28;;;1.92;;
29120;SDS011;16191;49.548;8.658;2023-04-03T00:32:50;7.75;;;2.10;;
29120;SDS011;16191;49.548;8.658;2023-04-03T00:35:19;4.75;;;2.00;;
29120;SDS011;16191;49.548;8.658;2023-04-03T00:37:47;8.38;;;2.10;;
29120;SDS011;16191;49.548;8.658;2023-04-03T00:40:14;7.10;;;2.45;;
29120;SDS011;16191;49.548;8.658;2023-04-03T00:42:42;4.00;;;2.00;;
29120;SDS011;16191;49.548;8.658;2023-04-03T00:47:39;5.27;;;2.57;;
29120;SDS011;16191;49.548;8.658;2023-04-03T00:50:07;4.07;;;1.73;;
29120;SDS011;16191;49.548;8.658;2023-04-03T00:52:34;3.25;;;1.73;;
29120;SDS011;16191;49.548;8.658;2023-04-03T00:55:04;5.30;;;2.00;;
29120;SDS011;16191;49.548;8.658;2023-04-03T00:57:33;4.00;;;1.88;;
29120;SDS011;16191;49.548;8.658;2023-04-03T01:00:03;4.85;;;2.05;;
29120;SDS011;16191;49.548;8.658;2023-04-03T01:02:35;4.95;;;1.73;;
29120;SDS011;16191;49.548;8.658;2023-04-03T01:05:03;5.18;;;2.50;;
29120;SDS011;16191;49.548;8.658;2023-04-03T01:07:31;5.22;;;2.20;;
29120;SDS011;16191;49.548;8.658;2023-04-03T01:10:20;5.00;;;2.22;;
29120;SDS011;16191;49.548;8.658;2023-04-03T01:13:19;7.95;;;1.98;;
29120;SDS011;16191;49.548;8.658;2023-04-03T01:16:09;4.72;;;1.77;;
29120;SDS011;16191;49.548;8.658;2023-04-03T01:18:56;4.88;;;2.08;;
29120;SDS011;16191;49.548;8.658;2023-04-03T01:24:57;4.15;;;2.17;;
29120;SDS011;16191;49.548;8.658;2023-04-03T01:27:25;4.55;;;2.20;;
29120;SDS011;16191;49.548;8.658;2023-04-03T01:29:52;4.22;;;2.15;;
29120;SDS011;16191;49.548;8.658;2023-04-03T01:32:19;6.95;;;2.13;;
29120;SDS011;16191;49.548;8.658;2023-04-03T01:34:45;5.53;;;1.80;;
29120;SDS011;16191;49.548;8.658;2023-04-03T01:37:12;5.13;;;1.90;;
29120;SDS011;16191;49.548;8.658;2023-04-03T01:39:38;4.50;;;2.30;;
29120;SDS011;16191;49.548;8.658;2023-04-03T01:42:05;4.32;;;2.40;;
29120;SDS011;16191;49.548;8.658;2023-04-03T01:44:37;5.22;;;2.38;;
29120;SDS011;16191;49.548;8.658;2023-04-03T01:47:05;4.60;;;1.95;;
29120;SDS011;16191;49.548;8.658;2023-04-03T01:49:33;4.65;;;2.15;;
29120;SDS011;16191;49.548;8.658;2023-04-03T01:52:00;5.55;;;2.45;;
29120;SDS011;16191;49.548;8.658;2023-04-03T01:54:27;4.18;;;2.38;;
29120;SDS011;16191;49.548;8.658;2023-04-03T01:56:53;3.92;;;2.17;;
29120;SDS011;16191;49.548;8.658;2023-04-03T01:59:21;4.80;;;2.35;;
29120;SDS011;16191;49.548;8.658;2023-04-03T02:01:47;5.10;;;2.45;;
29120;SDS011;16191;49.548;8.658;2023-04-03T02:04:14;6.13;;;2.40;;
29120;SDS011;16191;49.548;8.658;2023-04-03T02:06:40;5.97;;;3.00;;
29120;SDS011;16191;49.548;8.658;2023-04-03T02:09:07;4.95;;;2.22;;
29120;SDS011;16191;49.548;8.658;2023-04-03T02:11:33;5.90;;;2.55;;
29120;SDS011;16191;49.548;8.658;2023-04-03T02:14:01;6.65;;;2.45;;
29120;SDS011;16191;49.548;8.658;2023-04-03T02:16:28;4.32;;;2.60;;
29120;SDS011;16191;49.548;8.658;2023-04-03T02:18:55;5.75;;;2.35;;
29120;SDS011;16191;49.548;8.658;2023-04-03T02:21:21;3.78;;;2.60;;
29120;SDS011;16191;49.548;8.658;2023-04-03T02:23:48;7.10;;;2.90;;
29120;SDS011;16191;49.548;8.658;2023-04-03T02:26:17;5.07;;;2.70;;
29120;SDS011;16191;49.548;8.658;2023-04-03T02:28:44;4.40;;;2.60;;
29120;SDS011;16191;49.548;8.658;2023-04-03T02:31:11;5.05;;;2.75;;
29120;SDS011;16191;49.548;8.658;2023-04-03T02:33:40;7.50;;;3.05;;
29120;SDS011;16191;49.548;8.658;2023-04-03T02:36:09;9.60;;;3.03;;
29120;SDS011;16191;49.548;8.658;2023-04-03T02:38:38;10.25;;;2.95;;
29120;SDS011;16191;49.548;8.658;2023-04-03T02:41:06;6.60;;;3.03;;
29120;SDS011;16191;49.548;8.658;2023-04-03T02:43:34;5.30;;;2.67;;
29120;SDS011;16191;49.548;8.658;2023-04-03T02:46:02;5.35;;;2.50;;
29120;SDS011;16191;49.548;8.658;2023-04-03T02:48:30;5.68;;;2.60;;
29120;SDS011;16191;49.548;8.658;2023-04-03T02:50:58;6.57;;;2.78;;
29120;SDS011;16191;49.548;8.658;2023-04-03T02:53:25;4.57;;;2.85;;
29120;SDS011;16191;49.548;8.658;2023-04-03T02:55:51;6.47;;;2.70;;
29120;SDS011;16191;49.548;8.658;2023-04-03T02:58:18;4.78;;;2.55;;
29120;SDS011;16191;49.548;8.658;2023-04-03T03:00:45;6.00;;;2.42;;
29120;SDS011;16191;49.548;8.658;2023-04-03T03:03:11;5.63;;;2.50;;
29120;SDS011;16191;49.548;8.658;2023-04-03T03:05:40;6.70;;;3.00;;
29120;SDS011;16191;49.548;8.658;2023-04-03T03:08:07;4.85;;;3.13;;
29120;SDS011;16191;49.548;8.658;2023-04-03T03:10:34;6.85;;;2.78;;
29120;SDS011;16191;49.548;8.658;2023-04-03T03:13:01;7.00;;;2.53;;
29120;SDS011;16191;49.548;8.658;2023-04-03T03:15:28;5.20;;;2.55;;
29120;SDS011;16191;49.548;8.658;2023-04-03T03:17:55;7.35;;;2.75;;
29120;SDS011;16191;49.548;8.658;2023-04-03T03:20:22;7.75;;;2.88;;
29120;SDS011;16191;49.548;8.658;2023-04-03T03:22:49;6.15;;;2.53;;
29120;SDS011;16191;49.548;8.658;2023-04-03T03:25:15;4.63;;;2.75;;
29120;SDS011;16191;49.548;8.658;2023-04-03T03:27:42;8.75;;;2.80;;
29120;SDS011;16191;49.548;8.658;2023-04-03T03:30:09;6.60;;;2.88;;
29120;SDS011;16191;49.548;8.658;2023-04-03T03:32:36;7.88;;;2.88;;
29120;SDS011;16191;49.548;8.658;2023-04-03T03:35:03;7.60;;;3.00;;
29120;SDS011;16191;49.548;8.658;2023-04-03T03:37:30;8.25;;;2.42;;
29120;SDS011;16191;49.548;8.658;2023-04-03T03:39:57;5.20;;;2.45;;
29120;SDS011;16191;49.548;8.658;2023-04-03T03:42:23;5.28;;;2.83;;
29120;SDS011;16191;49.548;8.658;2023-04-03T03:44:50;7.15;;;3.03;;
29120;SDS011;16191;49.548;8.658;2023-04-03T03:47:18;4.85;;;2.38;;
29120;SDS011;16191;49.548;8.658;2023-04-03T03:49:45;8.88;;;2.72;;
29120;SDS011;16191;49.548;8.658;2023-04-03T03:52:13;5.72;;;2.60;;
29120;SDS011;16191;49.548;8.658;2023-04-03T03:54:40;4.38;;;2.67;;
29120;SDS011;16191;49.548;8.658;2023-04-03T03:57:06;6.15;;;2.83;;
29120;SDS011;16191;49.548;8.658;2023-04-03T03:59:33;5.22;;;2.50;;
29120;SDS011;16191;49.548;8.658;2023-04-03T04:01:59;8.70;;;2.72;;
29120;SDS011;16191;49.548;8.658;2023-04-03T04:04:26;6.75;;;2.97;;
29120;SDS011;16191;49.548;8.658;2023-04-03T04:06:54;5.57;;;3.00;;
29120;SDS011;16191;49.548;8.658;2023-04-03T04:09:20;5.03;;;2.65;;
29120;SDS011;16191;49.548;8.658;2023-04-03T04:11:47;5.28;;;2.88;;
29120;SDS011;16191;49.548;8.658;2023-04-03T04:14:15;5.18;;;2.80;;
29120;SDS011;16191;49.548;8.658;2023-04-03T04:16:43;4.10;;;2.60;;
29120;SDS011;16191;49.548;8.658;2023-04-03T04:19:15;10.20;;;3.03;;
29120;SDS011;16191;49.548;8.658;2023-04-03T04:21:43;6.00;;;2.95;;
29120;SDS011;16191;49.548;8.658;2023-04-03T04:24:09;4.25;;;2.65;;
29120;SDS011;16191;49.548;8.658;2023-04-03T04:26:37;5.30;;;2.85;;
29120;SDS011;16191;49.548;8.658;2023-04-03T04:29:05;4.97;;;3.28;;
29120;SDS011;16191;49.548;8.658;2023-04-03T04:31:34;5.40;;;3.03;;
29120;SDS011;16191;49.548;8.658;2023-04-03T04:34:01;10.85;;;3.22;;
29120;SDS011;16191;49.548;8.658;2023-04-03T04:36:28;9.18;;;3.22;;
29120;SDS011;16191;49.548;8.658;2023-04-03T04:38:54;6.82;;;2.72;;
29120;SDS011;16191;49.548;8.658;2023-04-03T04:41:24;5.10;;;2.67;;
29120;SDS011;16191;49.548;8.658;2023-04-03T04:43:51;7.55;;;3.55;;
29120;SDS011;16191;49.548;8.658;2023-04-03T04:46:18;7.55;;;3.80;;
29120;SDS011;16191;49.548;8.658;2023-04-03T04:48:50;4.65;;;3.08;;
29120;SDS011;16191;49.548;8.658;2023-04-03T04:51:19;6.95;;;2.72;;
29120;SDS011;16191;49.548;8.658;2023-04-03T04:53:45;7.63;;;3.00;;
29120;SDS011;16191;49.548;8.658;2023-04-03T04:56:14;8.43;;;2.90;;
29120;SDS011;16191;49.548;8.658;2023-04-03T04:58:42;7.65;;;3.03;;
29120;SDS011;16191;49.548;8.658;2023-04-03T05:01:09;5.38;;;3.03;;
29120;SDS011;16191;49.548;8.658;2023-04-03T05:03:46;6.18;;;3.40;;
29120;SDS011;16191;49.548;8.658;2023-04-03T05:06:15;5.75;;;3.15;;
29120;SDS011;16191;49.548;8.658;2023-04-03T05:08:41;11.55;;;4.50;;
29120;SDS011;16191;49.548;8.658;2023-04-03T05:11:08;16.25;;;5.97;;
29120;SDS011;16191;49.548;8.658;2023-04-03T05:13:35;12.50;;;5.05;;
29120;SDS011;16191;49.548;8.658;2023-04-03T05:16:01;12.85;;;4.80;;
29120;SDS011;16191;49.548;8.658;2023-04-03T05:18:28;12.20;;;4.40;;
29120;SDS011;16191;49.548;8.658;2023-04-03T05:20:57;12.23;;;3.30;;
29120;SDS011;16191;49.548;8.658;2023-04-03T05:23:25;9.45;;;3.53;;
29120;SDS011;16191;49.548;8.658;2023-04-03T05:25:52;4.57;;;3.08;;
29120;SDS011;16191;49.548;8.658;2023-04-03T05:28:21;8.07;;;3.38;;
29120;SDS011;16191;49.548;8.658;2023-04-03T05:30:54;6.22;;;2.80;;
29120;SDS011;16191;49.548;8.658;2023-04-03T05:33:24;4.95;;;3.63;;
29120;SDS011;16191;49.548;8.658;2023-04-03T05:35:54;6.68;;;3.55;;
29120;SDS011;16191;49.548;8.658;2023-04-03T05:38:25;8.68;;;3.17;;
29120;SDS011;16191;49.548;8.658;2023-04-03T05:40:53;7.60;;;3.67;;
29120;SDS011;16191;49.548;8.658;2023-04-03T05:43:20;7.60;;;3.80;;
29120;SDS011;16191;49.548;8.658;2023-04-03T05:45:48;7.97;;;3.83;;
29120;SDS011;16191;49.548;8.658;2023-04-03T05:48:15;6.47;;;3.88;;
29120;SDS011;16191;49.548;8.658;2023-04-03T05:50:42;7.63;;;3.08;;
29120;SDS011;16191;49.548;8.658;2023-04-03T05:53:15;9.85;;;3.95;;
29120;SDS011;16191;49.548;8.658;2023-04-03T05:55:45;9.90;;;4.40;;
29120;SDS011;16191;49.548;8.658;2023-04-03T05:58:12;8.48;;;4.32;;
29120;SDS011;16191;49.548;8.658;2023-04-03T06:00:39;11.75;;;4.63;;
29120;SDS011;16191;49.548;8.658;2023-04-03T06:03:06;8.55;;;4.25;;
29120;SDS011;16191;49.548;8.658;2023-04-03T06:05:33;9.23;;;3.92;;
29120;SDS011;16191;49.548;8.658;2023-04-03T06:08:00;8.95;;;4.18;;
29120;SDS011;16191;49.548;8.658;2023-04-03T06:10:26;10.20;;;4.00;;
29120;SDS011;16191;49.548;8.658;2023-04-03T06:12:53;11.05;;;4.85;;
29120;SDS011;16191;49.548;8.658;2023-04-03T06:15:20;10.57;;;4.95;;
29120;SDS011;16191;49.548;8.658;2023-04-03T06:17:47;9.38;;;4.53;;
29120;SDS011;16191;49.548;8.658;2023-04-03T06:20:14;8.20;;;4.55;;
29120;SDS011;16191;49.548;8.658;2023-04-03T06:22:40;7.97;;;4.43;;
29120;SDS011;16191;49.548;8.658;2023-04-03T06:25:09;10.02;;;4.40;;
29120;SDS011;16191;49.548;8.658;2023-04-03T06:27:37;8.52;;;4.28;;
29120;SDS011;16191;49.548;8.658;2023-04-03T06:30:05;9.40;;;3.85;;
29120;SDS011;16191;49.548;8.658;2023-04-03T06:32:32;7.03;;;3.83;;
29120;SDS011;16191;49.548;8.658;2023-04-03T06:34:59;7.63;;;3.33;;
29120;SDS011;16191;49.548;8.658;2023-04-03T06:37:26;8.40;;;3.70;;
29120;SDS011;16191;49.548;8.658;2023-04-03T06:39:54;7.47;;;3.60;;
29120;SDS011;16191;49.548;8.658;2023-04-03T06:42:21;6.95;;;3.25;;
29120;SDS011;16191;49.548;8.658;2023-04-03T06:44:57;7.10;;;3.47;;
29120;SDS011;16191;49.548;8.658;2023-04-03T06:47:23;8.38;;;4.45;;
29120;SDS011;16191;49.548;8.658;2023-04-03T06:49:50;7.95;;;3.83;;
29120;SDS011;16191;49.548;8.658;2023-04-03T06:52:16;7.93;;;3.33;;
29120;SDS011;16191;49.548;8.658;2023-04-03T06:54:43;4.72;;;2.85;;
29120;SDS011;16191;49.548;8.658;2023-04-03T06:57:09;9.70;;;3.00;;
29120;SDS011;16191;49.548;8.658;2023-04-03T06:59:36;6.15;;;2.83;;
29120;SDS011;16191;49.548;8.658;2023-04-03T07:02:03;10.70;;;3.70;;
29120;SDS011;16191;49.548;8.658;2023-04-03T07:04:30;6.85;;;3.17;;
29120;SDS011;16191;49.548;8.658;2023-04-03T07:06:57;4.20;;;3.03;;
29120;SDS011;16191;49.548;8.658;2023-04-03T07:09:23;7.53;;;3.25;;
29120;SDS011;16191;49.548;8.658;2023-04-03T07:11:50;10.25;;;3.53;;
29120;SDS011;16191;49.548;8.658;2023-04-03T07:14:17;9.18;;;3.40;;
29120;SDS011;16191;49.548;8.658;2023-04-03T07:16:43;5.70;;;2.67;;
29120;SDS011;16191;49.548;8.658;2023-04-03T07:19:10;5.32;;;2.72;;
29120;SDS011;16191;49.548;8.658;2023-04-03T07:21:37;8.00;;;2.90;;
29120;SDS011;16191;49.548;8.658;2023-04-03T07:24:04;8.50;;;3.55;;
29120;SDS011;16191;49.548;8.658;2023-04-03T07:26:30;9.10;;;2.90;;
29120;SDS011;16191;49.548;8.658;2023-04-03T07:28:57;5.40;;;2.60;;
29120;SDS011;16191;49.548;8.658;2023-04-03T07:31:24;8.30;;;2.85;;
29120;SDS011;16191;49.548;8.658;2023-04-03T07:33:51;8.98;;;2.88;;
29120;SDS011;16191;49.548;8.658;2023-04-03T07:36:20;6.35;;;2.75;;
29120;SDS011;16191;49.548;8.658;2023-04-03T07:38:48;5.97;;;2.80;;
29120;SDS011;16191;49.548;8.658;2023-04-03T07:41:15;4.97;;;2.58;;
29120;SDS011;16191;49.548;8.658;2023-04-03T07:43:44;6.30;;;2.60;;
29120;SDS011;16191;49.548;8.658;2023-04-03T07:46:11;9.45;;;2.50;;
29120;SDS011;16191;49.548;8.658;2023-04-03T07:48:39;6.35;;;2.38;;
29120;SDS011;16191;49.548;8.658;2023-04-03T07:51:05;6.40;;;2.42;;
29120;SDS011;16191;49.548;8.658;2023-04-03T07:53:32;10.40;;;2.28;;
29120;SDS011;16191;49.548;8.658;2023-04-03T07:55:59;5.63;;;1.55;;
29120;SDS011;16191;49.548;8.658;2023-04-03T07:58:26;6.72;;;1.90;;
29120;SDS011;16191;49.548;8.658;2023-04-03T08:00:53;6.97;;;2.05;;
29120;SDS011;16191;49.548;8.658;2023-04-03T08:03:19;10.77;;;2.30;;
29120;SDS011;16191;49.548;8.658;2023-04-03T08:05:47;9.50;;;1.80;;
29120;SDS011;16191;49.548;8.658;2023-04-03T08:08:16;5.47;;;2.00;;
29120;SDS011;16191;49.548;8.658;2023-04-03T08:10:50;6.32;;;1.85;;
29120;SDS011;16191;49.548;8.658;2023-04-03T08:13:18;6.10;;;1.88;;
29120;SDS011;16191;49.548;8.658;2023-04-03T08:15:45;5.22;;;2.20;;
29120;SDS011;16191;49.548;8.658;2023-04-03T08:18:13;4.53;;;1.80;;
29120;SDS011;16191;49.548;8.658;2023-04-03T08:20:41;4.75;;;1.80;;
29120;SDS011;16191;49.548;8.658;2023-04-03T08:23:07;10.88;;;2.40;;
29120;SDS011;16191;49.548;8.658;2023-04-03T08:25:38;5.47;;;1.73;;
29120;SDS011;16191;49.548;8.658;2023-04-03T08:28:06;3.75;;;1.77;;
29120;SDS011;16191;49.548;8.658;2023-04-03T08:30:34;6.63;;;1.83;;
29120;SDS011;16191;49.548;8.658;2023-04-03T08:33:01;5.43;;;2.40;;
29120;SDS011;16191;49.548;8.658;2023-04-03T08:35:28;4.25;;;1.77;;
29120;SDS011;16191;49.548;8.658;2023-04-03T08:37:55;8.80;;;1.92;;
29120;SDS011;16191;49.548;8.658;2023-04-03T08:40:22;3.92;;;1.38;;
29120;SDS011;16191;49.548;8.658;2023-04-03T08:42:55;7.70;;;1.70;;
29120;SDS011;16191;49.548;8.658;2023-04-03T08:45:38;7.40;;;1.55;;
29120;SDS011;16191;49.548;8.658;2023-04-03T08:48:26;7.90;;;1.70;;
29120;SDS011;16191;49.548;8.658;2023-04-03T08:50:58;6.07;;;1.40;;
29120;SDS011;16191;49.548;8.658;2023-04-03T08:53:29;3.67;;;1.50;;
29120;SDS011;16191;49.548;8.658;2023-04-03T08:56:00;7.55;;;1.70;;
29120;SDS011;16191;49.548;8.658;2023-04-03T08:58:33;4.13;;;1.70;;
29120;SDS011;16191;49.548;8.658;2023-04-03T09:01:26;4.13;;;1.40;;
29120;SDS011;16191;49.548;8.658;2023-04-03T09:04:00;5.45;;;1.48;;
29120;SDS011;16191;49.548;8.658;2023-04-03T09:06:31;2.92;;;1.20;;
29120;SDS011;16191;49.548;8.658;2023-04-03T09:14:23;4.47;;;1.20;;
29120;SDS011;16191;49.548;8.658;2023-04-03T09:16:59;4.38;;;1.08;;
29120;SDS011;16191;49.548;8.658;2023-04-03T09:19:36;6.30;;;1.67;;
29120;SDS011;16191;49.548;8.658;2023-04-03T09:22:26;5.07;;;1.48;;
29120;SDS011;16191;49.548;8.658;2023-04-03T09:24:59;4.20;;;1.73;;
29120;SDS011;16191;49.548;8.658;2023-04-03T09:27:31;4.10;;;1.40;;
29120;SDS011;16191;49.548;8.658;2023-04-03T09:29:58;5.15;;;1.10;;
29120;SDS011;16191;49.548;8.658;2023-04-03T09:32:26;4.38;;;1.23;;
29120;SDS011;16191;49.548;8.658;2023-04-03T09:35:04;2.90;;;1.20;;
29120;SDS011;16191;49.548;8.658;2023-04-03T09:37:53;3.80;;;1.33;;
29120;SDS011;16191;49.548;8.658;2023-04-03T09:42:53;4.95;;;1.60;;
29120;SDS011;16191;49.548;8.658;2023-04-03T09:45:33;5.93;;;1.05;;
29120;SDS011;16191;49.548;8.658;2023-04-03T09:48:07;4.28;;;1.38;;
29120;SDS011;16191;49.548;8.658;2023-04-03T09:53:40;4.47;;;1.55;;
29120;SDS011;16191;49.548;8.658;2023-04-03T09:56:19;5.03;;;1.40;;
29120;SDS011;16191;49.548;8.658;2023-04-03T09:58:50;3.22;;;1.35;;
29120;SDS011;16191;49.548;8.658;2023-04-03T10:04:11;6.60;;;1.77;;
29120;SDS011;16191;49.548;8.658;2023-04-03T10:06:47;1.67;;;1.10;;
29120;SDS011;16191;49.548;8.658;2023-04-03T10:09:18;4.30;;;1.50;;
29120;SDS011;16191;49.548;8.658;2023-04-03T10:11:56;5.50;;;1.63;;
29120;SDS011;16191;49.548;8.658;2023-04-03T10:14:23;4.53;;;1.58;;
29120;SDS011;16191;49.548;8.658;2023-04-03T10:17:01;4.60;;;1.13;;
29120;SDS011;16191;49.548;8.658;2023-04-03T10:25:21;6.35;;;1.55;;
29120;SDS011;16191;49.548;8.658;2023-04-03T10:27:57;3.63;;;1.50;;
29120;SDS011;16191;49.548;8.658;2023-04-03T10:36:03;3.80;;;1.40;;
29120;SDS011;16191;49.548;8.658;2023-04-03T10:38:59;2.55;;;1.50;;
29120;SDS011;16191;49.548;8.658;2023-04-03T10:41:39;2.35;;;0.93;;
29120;SDS011;16191;49.548;8.658;2023-04-03T10:44:21;4.75;;;1.45;;
29120;SDS011;16191;49.548;8.658;2023-04-03T10:55:51;2.47;;;1.17;;
29120;SDS011;16191;49.548;8.658;2023-04-03T10:58:41;3.92;;;1.20;;
29120;SDS011;16191;49.548;8.658;2023-04-03T11:01:19;2.63;;;1.00;;
29120;SDS011;16191;49.548;8.658;2023-04-03T11:03:52;3.50;;;1.30;;
29120;SDS011;16191;49.548;8.658;2023-04-03T11:06:22;3.35;;;1.35;;
29120;SDS011;16191;49.548;8.658;2023-04-03T11:08:51;10.48;;;1.58;;
29120;SDS011;16191;49.548;8.658;2023-04-03T11:11:26;3.15;;;1.27;;
29120;SDS011;16191;49.548;8.658;2023-04-03T11:14:10;2.15;;;1.20;;
29120;SDS011;16191;49.548;8.658;2023-04-03T11:16:47;4.00;;;1.10;;
29120;SDS011;16191;49.548;8.658;2023-04-03T11:19:21;4.15;;;1.30;;
29120;SDS011;16191;49.548;8.658;2023-04-03T11:21:57;7.68;;;1.50;;
29120;SDS011;16191;49.548;8.658;2023-04-03T11:24:38;2.95;;;1.25;;
29120;SDS011;16191;49.548;8.658;2023-04-03T11:27:11;4.40;;;1.33;;
29120;SDS011;16191;49.548;8.658;2023-04-03T11:29:45;3.15;;;1.20;;
29120;SDS011;16191;49.548;8.658;2023-04-03T11:35:05;4.50;;;1.88;;
29120;SDS011;16191;49.548;8.658;2023-04-03T11:37:35;3.83;;;1.50;;
29120;SDS011;16191;49.548;8.658;2023-04-03T11:42:42;5.25;;;1.55;;
29120;SDS011;16191;49.548;8.658;2023-04-03T11:47:56;4.82;;;2.00;;
29120;SDS011;16191;49.548;8.658;2023-04-03T11:50:38;6.13;;;1.40;;
29120;SDS011;16191;49.548;8.658;2023-04-03T11:55:52;3.75;;;1.55;;
29120;SDS011;16191;49.548;8.658;2023-04-03T12:13:39;5.40;;;1.38;;
29120;SDS011;16191;49.548;8.658;2023-04-03T12:16:20;3.95;;;1.27;;
29120;SDS011;16191;49.548;8.658;2023-04-03T12:21:16;3.20;;;1.35;;
29120;SDS011;16191;49.548;8.658;2023-04-03T12:24:04;2.67;;;1.33;;
29120;SDS011;16191;49.548;8.658;2023-04-03T12:29:25;2.55;;;1.30;;
29120;SDS011;16191;49.548;8.658;2023-04-03T12:35:22;2.60;;;1.27;;
29120;SDS011;16191;49.548;8.658;2023-04-03T12:40:52;5.40;;;1.55;;
29120;SDS011;16191;49.548;8.658;2023-04-03T12:46:18;5.18;;;1.42;;
29120;SDS011;16191;49.548;8.658;2023-04-03T12:48:51;4.30;;;1.50;;
29120;SDS011;16191;49.548;8.658;2023-04-03T12:51:25;2.22;;;1.23;;
29120;SDS011;16191;49.548;8.658;2023-04-03T12:54:04;5.03;;;1.48;;
29120;SDS011;16191;49.548;8.658;2023-04-03T12:57:18;4.28;;;1.65;;
29120;SDS011;16191;49.548;8.658;2023-04-03T12:59:47;6.35;;;2.00;;
29120;SDS011;16191;49.548;8.658;2023-04-03T13:04:54;4.20;;;1.50;;
29120;SDS011;16191;49.548;8.658;2023-04-03T13:07:32;8.65;;;1.75;;
29120;SDS011;16191;49.548;8.658;2023-04-03T13:12:50;7.88;;;1.70;;
29120;SDS011;16191;49.548;8.658;2023-04-03T13:15:29;3.25;;;1.45;;
29120;SDS011;16191;49.548;8.658;2023-04-03T13:18:05;7.05;;;1.83;;
29120;SDS011;16191;49.548;8.658;2023-04-03T13:20:51;3.65;;;1.60;;
29120;SDS011;16191;49.548;8.658;2023-04-03T13:23:22;4.03;;;1.52;;
29120;SDS011;16191;49.548;8.658;2023-04-03T13:25:49;2.80;;;1.50;;
29120;SDS011;16191;49.548;8.658;2023-04-03T13:28:21;4.22;;;1.55;;
29120;SDS011;16191;49.548;8.658;2023-04-03T13:31:02;6.53;;;1.60;;
29120;SDS011;16191;49.548;8.658;2023-04-03T13:33:34;3.90;;;1.92;;
29120;SDS011;16191;49.548;8.658;2023-04-03T13:36:05;5.80;;;1.52;;
29120;SDS011;16191;49.548;8.658;2023-04-03T13:38:42;3.97;;;1.60;;
29120;SDS011;16191;49.548;8.658;2023-04-03T13:41:23;5.45;;;1.52;;
29120;SDS011;16191;49.548;8.658;2023-04-03T13:43:52;2.90;;;1.30;;
29120;SDS011;16191;49.548;8.658;2023-04-03T13:46:31;4.80;;;1.20;;
29120;SDS011;16191;49.548;8.658;2023-04-03T13:48:58;3.40;;;1.50;;
29120;SDS011;16191;49.548;8.658;2023-04-03T13:51:55;3.10;;;1.60;;
29120;SDS011;16191;49.548;8.658;2023-04-03T13:54:37;8.52;;;1.80;;
29120;SDS011;16191;49.548;8.658;2023-04-03T13:57:12;3.13;;;1.77;;
29120;SDS011;16191;49.548;8.658;2023-04-03T13:59:41;7.40;;;1.60;;
29120;SDS011;16191;49.548;8.658;2023-04-03T14:02:14;4.60;;;1.50;;
29120;SDS011;16191;49.548;8.658;2023-04-03T14:07:24;3.00;;;1.20;;
29120;SDS011;16191;49.548;8.658;2023-04-03T14:09:51;2.30;;;1.23;;
29120;SDS011;16191;49.548;8.658;2023-04-03T14:15:04;6.65;;;1.58;;
29120;SDS011;16191;49.548;8.658;2023-04-03T14:17:38;3.95;;;1.50;;
29120;SDS011;16191;49.548;8.658;2023-04-03T14:20:05;4.25;;;1.77;;
29120;SDS011;16191;49.548;8.658;2023-04-03T14:22:32;4.43;;;1.70;;
29120;SDS011;16191;49.548;8.658;2023-04-03T14:25:01;3.72;;;1.30;;
29120;SDS011;16191;49.548;8.658;2023-04-03T14:27:29;4.70;;;1.40;;
29120;SDS011;16191;49.548;8.658;2023-04-03T14:30:08;4.45;;;1.50;;
29120;SDS011;16191;49.548;8.658;2023-04-03T14:32:39;1.92;;;1.10;;
29120;SDS011;16191;49.548;8.658;2023-04-03T14:35:06;4.38;;;1.45;;
29120;SDS011;16191;49.548;8.658;2023-04-03T14:37:33;4.82;;;1.48;;
29120;SDS011;16191;49.548;8.658;2023-04-03T14:40:02;3.30;;;1.38;;
29120;SDS011;16191;49.548;8.658;2023-04-03T14:42:32;3.13;;;1.52;;
29120;SDS011;16191;49.548;8.658;2023-04-03T14:45:01;2.45;;;1.25;;
29120;SDS011;16191;49.548;8.658;2023-04-03T14:47:30;3.78;;;1.55;;
29120;SDS011;16191;49.548;8.658;2023-04-03T14:49:59;4.07;;;1.48;;
29120;SDS011;16191;49.548;8.658;2023-04-03T14:52:28;1.77;;;1.25;;
29120;SDS011;16191;49.548;8.658;2023-04-03T14:54:58;2.83;;;1.42;;
29120;SDS011;16191;49.548;8.658;2023-04-03T14:57:25;2.72;;;1.52;;
29120;SDS011;16191;49.548;8.658;2023-04-03T14:59:54;2.83;;;1.30;;
29120;SDS011;16191;49.548;8.658;2023-04-03T15:04:50;5.03;;;1.27;;
29120;SDS011;16191;49.548;8.658;2023-04-03T15:07:18;2.38;;;1.00;;
29120;SDS011;16191;49.548;8.658;2023-04-03T15:09:45;2.45;;;1.42;;
29120;SDS011;16191;49.548;8.658;2023-04-03T15:12:12;3.13;;;1.13;;
29120;SDS011;16191;49.548;8.658;2023-04-03T15:14:44;2.78;;;1.45;;
29120;SDS011;16191;49.548;8.658;2023-04-03T15:17:22;4.55;;;1.40;;
29120;SDS011;16191;49.548;8.658;2023-04-03T15:19:50;3.85;;;1.25;;
29120;SDS011;16191;49.548;8.658;2023-04-03T15:22:18;3.10;;;1.45;;
29120;SDS011;16191;49.548;8.658;2023-04-03T15:24:46;3.47;;;1.50;;
29120;SDS011;16191;49.548;8.658;2023-04-03T15:27:12;4.10;;;1.10;;
29120;SDS011;16191;49.548;8.658;2023-04-03T15:29:40;2.35;;;1.23;;
29120;SDS011;16191;49.548;8.658;2023-04-03T15:32:08;3.33;;;1.40;;
29120;SDS011;16191;49.548;8.658;2023-04-03T15:34:39;2.72;;;1.42;;
29120;SDS011;16191;49.548;8.658;2023-04-03T15:37:05;6.45;;;1.50;;
29120;SDS011;16191;49.548;8.658;2023-04-03T15:39:32;5.30;;;1.42;;
29120;SDS011;16191;49.548;8.658;2023-04-03T15:41:58;5.18;;;1.30;;
29120;SDS011;16191;49.548;8.658;2023-04-03T15:44:34;3.03;;;1.00;;
29120;SDS011;16191;49.548;8.658;2023-04-03T15:47:01;3.42;;;1.27;;
29120;SDS011;16191;49.548;8.658;2023-04-03T15:49:28;5.55;;;1.67;;
29120;SDS011;16191;49.548;8.658;2023-04-03T15:51:57;2.47;;;0.98;;
29120;SDS011;16191;49.548;8.658;2023-04-03T15:54:23;3.25;;;1.25;;
29120;SDS011;16191;49.548;8.658;2023-04-03T15:56:52;2.70;;;1.27;;
29120;SDS011;16191;49.548;8.658;2023-04-03T15:59:19;4.32;;;1.20;;
29120;SDS011;16191;49.548;8.658;2023-04-03T16:01:46;2.20;;;0.90;;
29120;SDS011;16191;49.548;8.658;2023-04-03T16:04:13;2.90;;;1.23;;
29120;SDS011;16191;49.548;8.658;2023-04-03T16:06:42;2.60;;;1.30;;
29120;SDS011;16191;49.548;8.658;2023-04-03T16:09:09;2.60;;;1.10;;
29120;SDS011;16191;49.548;8.658;2023-04-03T16:11:36;3.67;;;1.27;;
29120;SDS011;16191;49.548;8.658;2023-04-03T16:14:06;2.67;;;1.25;;
29120;SDS011;16191;49.548;8.658;2023-04-03T16:16:33;1.77;;;0.88;;
29120;SDS011;16191;49.548;8.658;2023-04-03T16:19:01;2.03;;;1.20;;
29120;SDS011;16191;49.548;8.658;2023-04-03T16:21:27;4.35;;;1.20;;
29120;SDS011;16191;49.548;8.658;2023-04-03T16:23:56;6.32;;;1.65;;
29120;SDS011;16191;49.548;8.658;2023-04-03T16:26:24;2.08;;;0.90;;
29120;SDS011;16191;49.548;8.658;2023-04-03T16:28:52;1.58;;;0.98;;
29120;SDS011;16191;49.548;8.658;2023-04-03T16:31:19;1.98;;;0.93;;
29120;SDS011;16191;49.548;8.658;2023-04-03T16:33:46;3.33;;;1.65;;
29120;SDS011;16191;49.548;8.658;2023-04-03T16:36:13;3.33;;;1.38;;
29120;SDS011;16191;49.548;8.658;2023-04-03T16:38:39;1.73;;;1.13;;